sensor_id;sensor_type;location;lat;lon;timestamp;P1;durP1;ratioP1;P2;durP2;ratioP2
22929;SDS011;11630;42.660;23.292;2023-04-25T00:02:09;4.37;;;3.80;;
22929;SDS011;11630;42.660;23.292;2023-04-25T00:04:40;4.53;;;4.13;;
22929;SDS011;11630;42.660;23.292;2023-04-25T00:07:11;7.33;;;3.77;;
22929;SDS011;11630;42.660;23.292;2023-04-25T00:09:42;3.70;;;3.40;;
22929;SDS011;11630;42.660;23.292;2023-04-25T00:12:13;4.50;;;4.10;;
22929;SDS011;11630;42.660;23.292;2023-04-25T00:14:44;4.90;;;4.50;;
22929;SDS011;11630;42.660;23.292;2023-04-25T00:17:15;3.70;;;3.03;;
22929;SDS011;11630;42.660;23.292;2023-04-25T00:19:46;4.20;;;2.37;;
22929;SDS011;11630;42.660;23.292;2023-04-25T00:22:18;2.00;;;1.90;;
22929;SDS011;11630;42.660;23.292;2023-04-25T00:24:49;2.17;;;2.07;;
22929;SDS011;11630;42.660;23.292;2023-04-25T00:27:20;6.40;;;3.90;;
22929;SDS011;11630;42.660;23.292;2023-04-25T00:29:52;3.40;;;2.87;;
22929;SDS011;11630;42.660;23.292;2023-04-25T00:32:23;4.20;;;2.57;;
22929;SDS011;11630;42.660;23.292;2023-04-25T00:34:54;1.93;;;1.80;;
22929;SDS011;11630;42.660;23.292;2023-04-25T00:37:24;2.37;;;2.27;;
22929;SDS011;11630;42.660;23.292;2023-04-25T00:39:57;4.10;;;2.20;;
22929;SDS011;11630;42.660;23.292;2023-04-25T00:42:29;2.87;;;2.47;;
22929;SDS011;11630;42.660;23.292;2023-04-25T00:45:00;3.10;;;2.80;;
22929;SDS011;11630;42.660;23.292;2023-04-25T00:47:31;3.07;;;2.87;;
22929;SDS011;11630;42.660;23.292;2023-04-25T00:50:05;3.93;;;3.53;;
22929;SDS011;11630;42.660;23.292;2023-04-25T00:52:37;4.47;;;4.07;;
22929;SDS011;11630;42.660;23.292;2023-04-25T00:55:09;5.93;;;4.70;;
22929;SDS011;11630;42.660;23.292;2023-04-25T00:57:40;5.73;;;4.40;;
22929;SDS011;11630;42.660;23.292;2023-04-25T01:00:10;4.07;;;3.77;;
22929;SDS011;11630;42.660;23.292;2023-04-25T01:02:40;4.80;;;4.27;;
22929;SDS011;11630;42.660;23.292;2023-04-25T01:05:11;6.10;;;4.80;;
22929;SDS011;11630;42.660;23.292;2023-04-25T01:07:40;5.60;;;5.10;;
22929;SDS011;11630;42.660;23.292;2023-04-25T01:10:12;5.77;;;4.57;;
22929;SDS011;11630;42.660;23.292;2023-04-25T01:12:43;5.87;;;5.37;;
22929;SDS011;11630;42.660;23.292;2023-04-25T01:15:14;7.40;;;6.23;;
22929;SDS011;11630;42.660;23.292;2023-04-25T01:17:45;7.97;;;5.87;;
22929;SDS011;11630;42.660;23.292;2023-04-25T01:20:16;7.90;;;6.67;;
22929;SDS011;11630;42.660;23.292;2023-04-25T01:22:48;7.73;;;6.97;;
22929;SDS011;11630;42.660;23.292;2023-04-25T01:25:19;8.97;;;7.43;;
22929;SDS011;11630;42.660;23.292;2023-04-25T01:27:51;8.00;;;7.20;;
22929;SDS011;11630;42.660;23.292;2023-04-25T01:30:22;7.13;;;6.50;;
22929;SDS011;11630;42.660;23.292;2023-04-25T01:32:57;9.00;;;7.63;;
22929;SDS011;11630;42.660;23.292;2023-04-25T01:35:30;8.87;;;7.80;;
22929;SDS011;11630;42.660;23.292;2023-04-25T01:38:01;9.57;;;8.57;;
22929;SDS011;11630;42.660;23.292;2023-04-25T01:40:32;9.57;;;8.60;;
22929;SDS011;11630;42.660;23.292;2023-04-25T01:43:04;8.87;;;7.57;;
22929;SDS011;11630;42.660;23.292;2023-04-25T01:45:35;7.87;;;7.07;;
22929;SDS011;11630;42.660;23.292;2023-04-25T01:48:10;12.60;;;8.23;;
22929;SDS011;11630;42.660;23.292;2023-04-25T01:50:43;8.53;;;7.73;;
22929;SDS011;11630;42.660;23.292;2023-04-25T01:53:14;9.20;;;7.80;;
22929;SDS011;11630;42.660;23.292;2023-04-25T01:55:45;11.07;;;8.30;;
22929;SDS011;11630;42.660;23.292;2023-04-25T01:58:16;9.33;;;8.27;;
22929;SDS011;11630;42.660;23.292;2023-04-25T02:00:47;10.30;;;8.23;;
22929;SDS011;11630;42.660;23.292;2023-04-25T02:03:17;9.57;;;8.20;;
22929;SDS011;11630;42.660;23.292;2023-04-25T02:05:48;8.17;;;7.40;;
22929;SDS011;11630;42.660;23.292;2023-04-25T02:08:19;10.30;;;7.67;;
22929;SDS011;11630;42.660;23.292;2023-04-25T02:10:50;8.97;;;7.93;;
22929;SDS011;11630;42.660;23.292;2023-04-25T02:13:22;9.97;;;7.93;;
22929;SDS011;11630;42.660;23.292;2023-04-25T02:15:53;10.03;;;7.97;;
22929;SDS011;11630;42.660;23.292;2023-04-25T02:18:24;12.63;;;7.83;;
22929;SDS011;11630;42.660;23.292;2023-04-25T02:20:54;11.30;;;7.70;;
22929;SDS011;11630;42.660;23.292;2023-04-25T02:23:28;8.93;;;8.03;;
22929;SDS011;11630;42.660;23.292;2023-04-25T02:25:59;9.00;;;8.00;;
22929;SDS011;11630;42.660;23.292;2023-04-25T02:28:30;10.23;;;8.77;;
22929;SDS011;11630;42.660;23.292;2023-04-25T02:31:02;11.07;;;8.63;;
22929;SDS011;11630;42.660;23.292;2023-04-25T02:33:32;16.03;;;9.80;;
22929;SDS011;11630;42.660;23.292;2023-04-25T02:36:03;10.70;;;9.47;;
22929;SDS011;11630;42.660;23.292;2023-04-25T02:38:34;9.17;;;8.10;;
22929;SDS011;11630;42.660;23.292;2023-04-25T02:41:05;9.80;;;8.40;;
22929;SDS011;11630;42.660;23.292;2023-04-25T02:43:36;8.13;;;7.33;;
22929;SDS011;11630;42.660;23.292;2023-04-25T02:46:07;8.77;;;7.87;;
22929;SDS011;11630;42.660;23.292;2023-04-25T02:48:40;9.27;;;7.77;;
22929;SDS011;11630;42.660;23.292;2023-04-25T02:51:11;8.60;;;7.73;;
22929;SDS011;11630;42.660;23.292;2023-04-25T02:53:42;11.13;;;7.90;;
22929;SDS011;11630;42.660;23.292;2023-04-25T02:56:15;11.27;;;8.60;;
22929;SDS011;11630;42.660;23.292;2023-04-25T02:58:46;9.27;;;8.33;;
22929;SDS011;11630;42.660;23.292;2023-04-25T03:01:17;10.17;;;8.33;;
22929;SDS011;11630;42.660;23.292;2023-04-25T03:03:47;8.20;;;7.33;;
22929;SDS011;11630;42.660;23.292;2023-04-25T03:06:17;10.73;;;8.50;;
22929;SDS011;11630;42.660;23.292;2023-04-25T03:08:47;10.13;;;9.03;;
22929;SDS011;11630;42.660;23.292;2023-04-25T03:11:23;11.60;;;8.70;;
22929;SDS011;11630;42.660;23.292;2023-04-25T03:13:54;11.23;;;8.97;;
22929;SDS011;11630;42.660;23.292;2023-04-25T03:16:24;9.30;;;8.37;;
22929;SDS011;11630;42.660;23.292;2023-04-25T03:18:56;9.43;;;8.23;;
22929;SDS011;11630;42.660;23.292;2023-04-25T03:21:27;11.30;;;9.23;;
22929;SDS011;11630;42.660;23.292;2023-04-25T03:23:57;9.77;;;8.33;;
22929;SDS011;11630;42.660;23.292;2023-04-25T03:26:28;9.60;;;8.70;;
22929;SDS011;11630;42.660;23.292;2023-04-25T03:28:58;12.97;;;9.77;;
22929;SDS011;11630;42.660;23.292;2023-04-25T03:31:29;15.30;;;9.07;;
22929;SDS011;11630;42.660;23.292;2023-04-25T03:34:04;30.90;;;21.10;;
22929;SDS011;11630;42.660;23.292;2023-04-25T03:36:35;35.87;;;26.30;;
22929;SDS011;11630;42.660;23.292;2023-04-25T03:39:05;12.13;;;9.23;;
22929;SDS011;11630;42.660;23.292;2023-04-25T03:41:36;14.60;;;10.43;;
22929;SDS011;11630;42.660;23.292;2023-04-25T03:44:08;12.83;;;10.43;;
22929;SDS011;11630;42.660;23.292;2023-04-25T03:46:39;13.40;;;11.93;;
22929;SDS011;11630;42.660;23.292;2023-04-25T03:49:09;14.50;;;11.50;;
22929;SDS011;11630;42.660;23.292;2023-04-25T03:51:40;15.37;;;10.53;;
22929;SDS011;11630;42.660;23.292;2023-04-25T03:54:11;13.03;;;9.67;;
22929;SDS011;11630;42.660;23.292;2023-04-25T03:56:42;12.53;;;10.10;;
22929;SDS011;11630;42.660;23.292;2023-04-25T03:59:12;10.87;;;9.10;;
22929;SDS011;11630;42.660;23.292;2023-04-25T04:01:42;12.07;;;9.10;;
22929;SDS011;11630;42.660;23.292;2023-04-25T04:04:14;11.73;;;9.80;;
22929;SDS011;11630;42.660;23.292;2023-04-25T04:06:48;11.60;;;8.20;;
22929;SDS011;11630;42.660;23.292;2023-04-25T04:09:19;10.07;;;8.20;;
22929;SDS011;11630;42.660;23.292;2023-04-25T04:11:50;11.03;;;8.93;;
22929;SDS011;11630;42.660;23.292;2023-04-25T04:14:21;9.53;;;8.63;;
22929;SDS011;11630;42.660;23.292;2023-04-25T04:16:54;9.53;;;8.10;;
22929;SDS011;11630;42.660;23.292;2023-04-25T04:19:25;9.90;;;8.80;;
22929;SDS011;11630;42.660;23.292;2023-04-25T04:21:55;10.27;;;9.17;;
22929;SDS011;11630;42.660;23.292;2023-04-25T04:24:26;8.53;;;7.70;;
22929;SDS011;11630;42.660;23.292;2023-04-25T04:26:57;9.10;;;7.77;;
22929;SDS011;11630;42.660;23.292;2023-04-25T04:29:28;10.67;;;7.50;;
22929;SDS011;11630;42.660;23.292;2023-04-25T04:31:58;8.20;;;7.23;;
22929;SDS011;11630;42.660;23.292;2023-04-25T04:34:29;8.73;;;7.70;;
22929;SDS011;11630;42.660;23.292;2023-04-25T04:36:59;9.53;;;8.03;;
22929;SDS011;11630;42.660;23.292;2023-04-25T04:39:31;8.37;;;7.57;;
22929;SDS011;11630;42.660;23.292;2023-04-25T04:42:02;8.83;;;7.87;;
22929;SDS011;11630;42.660;23.292;2023-04-25T04:44:37;11.37;;;9.50;;
22929;SDS011;11630;42.660;23.292;2023-04-25T04:47:08;10.83;;;9.20;;
22929;SDS011;11630;42.660;23.292;2023-04-25T04:49:39;11.23;;;9.33;;
22929;SDS011;11630;42.660;23.292;2023-04-25T04:52:09;11.23;;;9.03;;
22929;SDS011;11630;42.660;23.292;2023-04-25T04:54:41;10.17;;;8.63;;
22929;SDS011;11630;42.660;23.292;2023-04-25T04:57:11;13.17;;;8.43;;
22929;SDS011;11630;42.660;23.292;2023-04-25T04:59:43;10.27;;;8.63;;
22929;SDS011;11630;42.660;23.292;2023-04-25T05:02:13;11.13;;;9.07;;
22929;SDS011;11630;42.660;23.292;2023-04-25T05:04:44;8.67;;;7.77;;
22929;SDS011;11630;42.660;23.292;2023-04-25T05:07:15;9.13;;;7.83;;
22929;SDS011;11630;42.660;23.292;2023-04-25T05:09:46;14.97;;;11.97;;
22929;SDS011;11630;42.660;23.292;2023-04-25T05:12:16;11.47;;;8.20;;
22929;SDS011;11630;42.660;23.292;2023-04-25T05:14:47;12.13;;;8.50;;
22929;SDS011;11630;42.660;23.292;2023-04-25T05:17:19;8.90;;;8.00;;
22929;SDS011;11630;42.660;23.292;2023-04-25T05:19:50;10.07;;;8.63;;
22929;SDS011;11630;42.660;23.292;2023-04-25T05:22:22;9.37;;;8.43;;
22929;SDS011;11630;42.660;23.292;2023-04-25T05:24:53;10.97;;;8.43;;
22929;SDS011;11630;42.660;23.292;2023-04-25T05:27:24;10.83;;;8.73;;
22929;SDS011;11630;42.660;23.292;2023-04-25T05:29:55;10.57;;;9.47;;
22929;SDS011;11630;42.660;23.292;2023-04-25T05:32:25;9.93;;;8.20;;
22929;SDS011;11630;42.660;23.292;2023-04-25T05:34:57;10.63;;;9.27;;
22929;SDS011;11630;42.660;23.292;2023-04-25T05:37:28;9.90;;;7.97;;
22929;SDS011;11630;42.660;23.292;2023-04-25T05:39:59;9.50;;;7.80;;
22929;SDS011;11630;42.660;23.292;2023-04-25T05:42:30;9.13;;;8.33;;
22929;SDS011;11630;42.660;23.292;2023-04-25T05:45:00;9.30;;;8.40;;
22929;SDS011;11630;42.660;23.292;2023-04-25T05:47:30;12.30;;;8.13;;
22929;SDS011;11630;42.660;23.292;2023-04-25T05:50:00;10.47;;;8.63;;
22929;SDS011;11630;42.660;23.292;2023-04-25T05:52:31;12.13;;;8.73;;
22929;SDS011;11630;42.660;23.292;2023-04-25T05:55:01;10.10;;;9.00;;
22929;SDS011;11630;42.660;23.292;2023-04-25T05:57:33;11.80;;;9.43;;
22929;SDS011;11630;42.660;23.292;2023-04-25T06:00:05;14.73;;;10.17;;
22929;SDS011;11630;42.660;23.292;2023-04-25T06:02:37;15.17;;;10.43;;
22929;SDS011;11630;42.660;23.292;2023-04-25T06:05:07;13.20;;;10.40;;
22929;SDS011;11630;42.660;23.292;2023-04-25T06:07:38;12.80;;;10.90;;
22929;SDS011;11630;42.660;23.292;2023-04-25T06:10:08;10.47;;;9.43;;
22929;SDS011;11630;42.660;23.292;2023-04-25T06:12:39;14.77;;;11.10;;
22929;SDS011;11630;42.660;23.292;2023-04-25T06:15:09;12.77;;;10.60;;
22929;SDS011;11630;42.660;23.292;2023-04-25T06:17:41;15.10;;;11.67;;
22929;SDS011;11630;42.660;23.292;2023-04-25T06:20:12;13.90;;;11.77;;
22929;SDS011;11630;42.660;23.292;2023-04-25T06:22:43;18.47;;;12.17;;
22929;SDS011;11630;42.660;23.292;2023-04-25T06:25:14;16.43;;;12.60;;
22929;SDS011;11630;42.660;23.292;2023-04-25T06:27:47;15.93;;;12.70;;
22929;SDS011;11630;42.660;23.292;2023-04-25T06:30:18;14.83;;;11.80;;
22929;SDS011;11630;42.660;23.292;2023-04-25T06:32:49;17.93;;;10.97;;
22929;SDS011;11630;42.660;23.292;2023-04-25T06:35:20;16.53;;;12.10;;
22929;SDS011;11630;42.660;23.292;2023-04-25T06:37:50;14.87;;;11.33;;
22929;SDS011;11630;42.660;23.292;2023-04-25T06:40:21;14.40;;;11.27;;
22929;SDS011;11630;42.660;23.292;2023-04-25T06:42:52;10.13;;;8.23;;
22929;SDS011;11630;42.660;23.292;2023-04-25T06:45:23;10.97;;;9.27;;
22929;SDS011;11630;42.660;23.292;2023-04-25T06:47:54;9.93;;;8.87;;
22929;SDS011;11630;42.660;23.292;2023-04-25T06:50:24;9.47;;;8.03;;
22929;SDS011;11630;42.660;23.292;2023-04-25T06:52:54;9.40;;;7.73;;
22929;SDS011;11630;42.660;23.292;2023-04-25T06:55:25;8.03;;;7.30;;
22929;SDS011;11630;42.660;23.292;2023-04-25T06:57:58;11.97;;;8.40;;
22929;SDS011;11630;42.660;23.292;2023-04-25T07:00:29;9.87;;;8.70;;
22929;SDS011;11630;42.660;23.292;2023-04-25T07:03:00;10.10;;;8.97;;
22929;SDS011;11630;42.660;23.292;2023-04-25T07:05:30;15.90;;;9.67;;
22929;SDS011;11630;42.660;23.292;2023-04-25T07:08:00;14.07;;;9.80;;
22929;SDS011;11630;42.660;23.292;2023-04-25T07:10:31;14.53;;;10.20;;
22929;SDS011;11630;42.660;23.292;2023-04-25T07:13:01;14.17;;;9.87;;
22929;SDS011;11630;42.660;23.292;2023-04-25T07:15:32;14.70;;;9.33;;
22929;SDS011;11630;42.660;23.292;2023-04-25T07:18:03;19.00;;;10.50;;
22929;SDS011;11630;42.660;23.292;2023-04-25T07:20:33;12.43;;;9.83;;
22929;SDS011;11630;42.660;23.292;2023-04-25T07:23:04;10.60;;;9.50;;
22929;SDS011;11630;42.660;23.292;2023-04-25T07:25:34;13.47;;;9.80;;
22929;SDS011;11630;42.660;23.292;2023-04-25T07:28:04;13.80;;;9.30;;
22929;SDS011;11630;42.660;23.292;2023-04-25T07:30:35;16.87;;;9.57;;
22929;SDS011;11630;42.660;23.292;2023-04-25T07:33:06;10.33;;;9.03;;
22929;SDS011;11630;42.660;23.292;2023-04-25T07:35:36;12.50;;;8.77;;
22929;SDS011;11630;42.660;23.292;2023-04-25T07:38:08;9.97;;;7.77;;
22929;SDS011;11630;42.660;23.292;2023-04-25T07:40:40;17.30;;;8.83;;
22929;SDS011;11630;42.660;23.292;2023-04-25T07:43:11;11.80;;;8.30;;
22929;SDS011;11630;42.660;23.292;2023-04-25T07:45:42;10.70;;;8.57;;
22929;SDS011;11630;42.660;23.292;2023-04-25T07:48:16;11.67;;;8.40;;
22929;SDS011;11630;42.660;23.292;2023-04-25T07:50:47;10.63;;;8.03;;
22929;SDS011;11630;42.660;23.292;2023-04-25T07:53:18;8.93;;;7.83;;
22929;SDS011;11630;42.660;23.292;2023-04-25T07:55:49;14.03;;;7.70;;
22929;SDS011;11630;42.660;23.292;2023-04-25T07:58:20;12.07;;;7.30;;
22929;SDS011;11630;42.660;23.292;2023-04-25T08:00:50;10.83;;;7.53;;
22929;SDS011;11630;42.660;23.292;2023-04-25T09:36:03;3.53;;;1.50;;
22929;SDS011;11630;42.660;23.292;2023-04-25T09:38:44;2.80;;;2.23;;
22929;SDS011;11630;42.660;23.292;2023-04-25T09:41:15;4.80;;;3.20;;
22929;SDS011;11630;42.660;23.292;2023-04-25T09:43:48;2.40;;;2.20;;
22929;SDS011;11630;42.660;23.292;2023-04-25T09:46:19;3.03;;;1.53;;
22929;SDS011;11630;42.660;23.292;2023-04-25T09:48:52;5.33;;;3.83;;
22929;SDS011;11630;42.660;23.292;2023-04-25T09:51:24;5.73;;;4.17;;
22929;SDS011;11630;42.660;23.292;2023-04-25T09:53:55;7.40;;;4.40;;
22929;SDS011;11630;42.660;23.292;2023-04-25T09:56:25;10.80;;;4.67;;
22929;SDS011;11630;42.660;23.292;2023-04-25T09:58:58;5.23;;;4.63;;
22929;SDS011;11630;42.660;23.292;2023-04-25T10:01:30;5.20;;;3.97;;
22929;SDS011;11630;42.660;23.292;2023-04-25T10:04:01;6.83;;;3.97;;
22929;SDS011;11630;42.660;23.292;2023-04-25T10:06:35;1.50;;;1.40;;
22929;SDS011;11630;42.660;23.292;2023-04-25T10:09:06;2.43;;;2.13;;
22929;SDS011;11630;42.660;23.292;2023-04-25T10:11:38;2.97;;;2.47;;
22929;SDS011;11630;42.660;23.292;2023-04-25T10:14:09;1.30;;;1.20;;
22929;SDS011;11630;42.660;23.292;2023-04-25T10:16:41;1.03;;;1.03;;
22929;SDS011;11630;42.660;23.292;2023-04-25T10:19:11;1.33;;;1.20;;
22929;SDS011;11630;42.660;23.292;2023-04-25T10:21:48;1.97;;;1.20;;
22929;SDS011;11630;42.660;23.292;2023-04-25T10:24:34;3.30;;;1.50;;
22929;SDS011;11630;42.660;23.292;2023-04-25T10:27:05;2.00;;;1.20;;
22929;SDS011;11630;42.660;23.292;2023-04-25T10:29:37;5.50;;;1.47;;
22929;SDS011;11630;42.660;23.292;2023-04-25T10:32:08;1.77;;;1.50;;
22929;SDS011;11630;42.660;23.292;2023-04-25T10:34:42;5.00;;;1.40;;
22929;SDS011;11630;42.660;23.292;2023-04-25T10:37:15;1.70;;;1.20;;
22929;SDS011;11630;42.660;23.292;2023-04-25T10:39:47;0.93;;;0.90;;
22929;SDS011;11630;42.660;23.292;2023-04-25T10:42:18;0.80;;;0.80;;
22929;SDS011;11630;42.660;23.292;2023-04-25T10:45:01;1.97;;;1.10;;
22929;SDS011;11630;42.660;23.292;2023-04-25T10:47:35;1.97;;;1.47;;
22929;SDS011;11630;42.660;23.292;2023-04-25T10:50:10;5.57;;;1.83;;
22929;SDS011;11630;42.660;23.292;2023-04-25T10:52:40;6.03;;;2.13;;
22929;SDS011;11630;42.660;23.292;2023-04-25T10:55:11;1.93;;;1.10;;
22929;SDS011;11630;42.660;23.292;2023-04-25T10:57:42;1.97;;;1.10;;
22929;SDS011;11630;42.660;23.292;2023-04-25T11:00:18;1.43;;;1.17;;
22929;SDS011;11630;42.660;23.292;2023-04-25T11:02:57;1.50;;;1.00;;
22929;SDS011;11630;42.660;23.292;2023-04-25T11:08:03;1.30;;;1.20;;
22929;SDS011;11630;42.660;23.292;2023-04-25T11:10:35;1.50;;;0.80;;
22929;SDS011;11630;42.660;23.292;2023-04-25T11:13:04;1.23;;;1.17;;
22929;SDS011;11630;42.660;23.292;2023-04-25T11:15:35;1.13;;;1.03;;
22929;SDS011;11630;42.660;23.292;2023-04-25T11:18:07;1.00;;;1.00;;
22929;SDS011;11630;42.660;23.292;2023-04-25T11:20:37;7.13;;;5.40;;
22929;SDS011;11630;42.660;23.292;2023-04-25T11:23:08;2.70;;;1.47;;
22929;SDS011;11630;42.660;23.292;2023-04-25T11:25:39;1.80;;;1.67;;
22929;SDS011;11630;42.660;23.292;2023-04-25T11:28:10;2.03;;;1.07;;
22929;SDS011;11630;42.660;23.292;2023-04-25T11:30:47;1.50;;;1.33;;
22929;SDS011;11630;42.660;23.292;2023-04-25T11:33:13;1.73;;;1.30;;
22929;SDS011;11630;42.660;23.292;2023-04-25T11:35:44;1.27;;;1.20;;
22929;SDS011;11630;42.660;23.292;2023-04-25T11:38:14;1.53;;;1.40;;
22929;SDS011;11630;42.660;23.292;2023-04-25T11:40:49;1.60;;;1.43;;
22929;SDS011;11630;42.660;23.292;2023-04-25T11:43:22;2.30;;;1.73;;
22929;SDS011;11630;42.660;23.292;2023-04-25T11:45:55;2.53;;;1.73;;
22929;SDS011;11630;42.660;23.292;2023-04-25T11:48:26;1.40;;;1.10;;
22929;SDS011;11630;42.660;23.292;2023-04-25T11:50:59;5.97;;;1.33;;
22929;SDS011;11630;42.660;23.292;2023-04-25T11:53:30;0.93;;;0.93;;
22929;SDS011;11630;42.660;23.292;2023-04-25T11:56:00;1.77;;;1.33;;
22929;SDS011;11630;42.660;23.292;2023-04-25T11:58:30;1.20;;;1.00;;
22929;SDS011;11630;42.660;23.292;2023-04-25T12:01:01;1.40;;;1.30;;
22929;SDS011;11630;42.660;23.292;2023-04-25T12:03:31;3.10;;;1.33;;
22929;SDS011;11630;42.660;23.292;2023-04-25T12:06:02;2.10;;;1.30;;
22929;SDS011;11630;42.660;23.292;2023-04-25T12:08:33;4.83;;;1.80;;
22929;SDS011;11630;42.660;23.292;2023-04-25T12:11:04;8.47;;;1.90;;
22929;SDS011;11630;42.660;23.292;2023-04-25T12:13:35;4.07;;;2.10;;
22929;SDS011;11630;42.660;23.292;2023-04-25T12:16:06;5.03;;;1.67;;
22929;SDS011;11630;42.660;23.292;2023-04-25T12:18:37;4.00;;;1.87;;
22929;SDS011;11630;42.660;23.292;2023-04-25T12:21:07;1.90;;;1.70;;
22929;SDS011;11630;42.660;23.292;2023-04-25T12:23:38;4.03;;;1.63;;
22929;SDS011;11630;42.660;23.292;2023-04-25T12:26:08;2.73;;;1.70;;
22929;SDS011;11630;42.660;23.292;2023-04-25T12:28:39;3.53;;;2.10;;
22929;SDS011;11630;42.660;23.292;2023-04-25T12:31:10;1.93;;;1.50;;
22929;SDS011;11630;42.660;23.292;2023-04-25T12:33:41;1.70;;;1.60;;
22929;SDS011;11630;42.660;23.292;2023-04-25T12:36:12;1.73;;;1.33;;
22929;SDS011;11630;42.660;23.292;2023-04-25T12:38:43;3.90;;;1.60;;
22929;SDS011;11630;42.660;23.292;2023-04-25T12:41:13;2.13;;;1.60;;
22929;SDS011;11630;42.660;23.292;2023-04-25T12:43:44;6.47;;;1.40;;
22929;SDS011;11630;42.660;23.292;2023-04-25T12:46:14;3.97;;;1.40;;
22929;SDS011;11630;42.660;23.292;2023-04-25T12:48:48;1.30;;;1.20;;
22929;SDS011;11630;42.660;23.292;2023-04-25T12:51:18;1.20;;;1.10;;
22929;SDS011;11630;42.660;23.292;2023-04-25T12:53:49;1.40;;;1.03;;
22929;SDS011;11630;42.660;23.292;2023-04-25T12:56:20;1.20;;;1.10;;
22929;SDS011;11630;42.660;23.292;2023-04-25T12:58:50;3.30;;;1.10;;
22929;SDS011;11630;42.660;23.292;2023-04-25T13:01:21;3.17;;;1.53;;
22929;SDS011;11630;42.660;23.292;2023-04-25T13:03:52;4.67;;;2.00;;
22929;SDS011;11630;42.660;23.292;2023-04-25T13:06:24;1.40;;;1.30;;
22929;SDS011;11630;42.660;23.292;2023-04-25T13:08:55;2.63;;;1.63;;
22929;SDS011;11630;42.660;23.292;2023-04-25T13:11:26;11.53;;;6.03;;
22929;SDS011;11630;42.660;23.292;2023-04-25T13:13:56;5.27;;;3.47;;
22929;SDS011;11630;42.660;23.292;2023-04-25T13:16:26;2.53;;;1.70;;
22929;SDS011;11630;42.660;23.292;2023-04-25T13:18:57;2.07;;;1.70;;
22929;SDS011;11630;42.660;23.292;2023-04-25T13:21:29;4.47;;;2.70;;
22929;SDS011;11630;42.660;23.292;2023-04-25T13:24:00;3.97;;;2.70;;
22929;SDS011;11630;42.660;23.292;2023-04-25T13:26:30;5.83;;;2.57;;
22929;SDS011;11630;42.660;23.292;2023-04-25T13:29:01;7.03;;;2.40;;
22929;SDS011;11630;42.660;23.292;2023-04-25T13:31:32;5.83;;;2.67;;
22929;SDS011;11630;42.660;23.292;2023-04-25T13:34:03;4.37;;;2.50;;
22929;SDS011;11630;42.660;23.292;2023-04-25T13:36:33;4.47;;;2.70;;
22929;SDS011;11630;42.660;23.292;2023-04-25T13:39:04;4.83;;;2.67;;
22929;SDS011;11630;42.660;23.292;2023-04-25T13:41:34;3.47;;;2.43;;
22929;SDS011;11630;42.660;23.292;2023-04-25T13:44:05;2.00;;;1.80;;
22929;SDS011;11630;42.660;23.292;2023-04-25T13:46:36;1.90;;;1.80;;
22929;SDS011;11630;42.660;23.292;2023-04-25T13:49:10;3.03;;;2.00;;
22929;SDS011;11630;42.660;23.292;2023-04-25T13:51:41;3.20;;;2.00;;
22929;SDS011;11630;42.660;23.292;2023-04-25T13:54:12;2.17;;;1.60;;
22929;SDS011;11630;42.660;23.292;2023-04-25T13:56:43;4.40;;;1.97;;
22929;SDS011;11630;42.660;23.292;2023-04-25T13:59:14;1.67;;;1.40;;
22929;SDS011;11630;42.660;23.292;2023-04-25T14:01:44;1.67;;;1.40;;
22929;SDS011;11630;42.660;23.292;2023-04-25T14:04:15;1.60;;;1.50;;
22929;SDS011;11630;42.660;23.292;2023-04-25T14:06:45;1.30;;;1.20;;
22929;SDS011;11630;42.660;23.292;2023-04-25T14:09:17;1.40;;;1.30;;
22929;SDS011;11630;42.660;23.292;2023-04-25T14:11:48;1.57;;;1.30;;
22929;SDS011;11630;42.660;23.292;2023-04-25T14:14:20;2.47;;;1.60;;
22929;SDS011;11630;42.660;23.292;2023-04-25T14:16:50;5.73;;;1.73;;
22929;SDS011;11630;42.660;23.292;2023-04-25T14:19:22;1.53;;;1.43;;
22929;SDS011;11630;42.660;23.292;2023-04-25T14:21:52;1.57;;;1.37;;
22929;SDS011;11630;42.660;23.292;2023-04-25T14:24:23;1.73;;;1.50;;
22929;SDS011;11630;42.660;23.292;2023-04-25T14:26:53;1.33;;;1.27;;
22929;SDS011;11630;42.660;23.292;2023-04-25T14:29:23;2.77;;;1.33;;
22929;SDS011;11630;42.660;23.292;2023-04-25T14:31:54;1.33;;;1.30;;
22929;SDS011;11630;42.660;23.292;2023-04-25T14:34:25;3.07;;;1.80;;
22929;SDS011;11630;42.660;23.292;2023-04-25T14:36:56;4.10;;;1.90;;
22929;SDS011;11630;42.660;23.292;2023-04-25T14:39:27;2.10;;;2.00;;
22929;SDS011;11630;42.660;23.292;2023-04-25T14:41:58;1.70;;;1.60;;
22929;SDS011;11630;42.660;23.292;2023-04-25T14:44:28;5.83;;;2.37;;
22929;SDS011;11630;42.660;23.292;2023-04-25T14:46:59;4.00;;;1.73;;
22929;SDS011;11630;42.660;23.292;2023-04-25T14:49:29;4.97;;;1.90;;
22929;SDS011;11630;42.660;23.292;2023-04-25T14:52:00;2.23;;;2.00;;
22929;SDS011;11630;42.660;23.292;2023-04-25T14:54:31;2.60;;;2.10;;
22929;SDS011;11630;42.660;23.292;2023-04-25T14:57:03;2.47;;;2.13;;
22929;SDS011;11630;42.660;23.292;2023-04-25T14:59:34;2.37;;;2.17;;
22929;SDS011;11630;42.660;23.292;2023-04-25T15:02:05;4.67;;;2.10;;
22929;SDS011;11630;42.660;23.292;2023-04-25T15:04:35;2.30;;;2.07;;
22929;SDS011;11630;42.660;23.292;2023-04-25T15:07:06;6.73;;;3.53;;
22929;SDS011;11630;42.660;23.292;2023-04-25T15:09:36;2.83;;;2.63;;
22929;SDS011;11630;42.660;23.292;2023-04-25T15:12:08;4.73;;;3.47;;
22929;SDS011;11630;42.660;23.292;2023-04-25T15:14:38;4.93;;;3.17;;
22929;SDS011;11630;42.660;23.292;2023-04-25T15:17:08;5.70;;;4.63;;
22929;SDS011;11630;42.660;23.292;2023-04-25T15:19:39;3.97;;;2.80;;
22929;SDS011;11630;42.660;23.292;2023-04-25T15:22:12;3.33;;;2.67;;
22929;SDS011;11630;42.660;23.292;2023-04-25T15:24:43;3.47;;;3.00;;
22929;SDS011;11630;42.660;23.292;2023-04-25T15:27:14;7.37;;;4.20;;
22929;SDS011;11630;42.660;23.292;2023-04-25T15:29:45;3.83;;;3.20;;
22929;SDS011;11630;42.660;23.292;2023-04-25T15:32:16;7.80;;;3.53;;
22929;SDS011;11630;42.660;23.292;2023-04-25T15:34:47;3.60;;;2.90;;
22929;SDS011;11630;42.660;23.292;2023-04-25T15:37:18;2.60;;;2.40;;
22929;SDS011;11630;42.660;23.292;2023-04-25T15:39:50;3.77;;;2.90;;
22929;SDS011;11630;42.660;23.292;2023-04-25T15:42:20;4.77;;;3.87;;
22929;SDS011;11630;42.660;23.292;2023-04-25T15:44:52;3.97;;;3.30;;
22929;SDS011;11630;42.660;23.292;2023-04-25T15:47:23;3.30;;;2.63;;
22929;SDS011;11630;42.660;23.292;2023-04-25T15:49:54;3.83;;;3.13;;
22929;SDS011;11630;42.660;23.292;2023-04-25T15:52:24;6.37;;;3.00;;
22929;SDS011;11630;42.660;23.292;2023-04-25T15:54:55;3.97;;;3.10;;
22929;SDS011;11630;42.660;23.292;2023-04-25T15:57:25;2.87;;;2.47;;
22929;SDS011;11630;42.660;23.292;2023-04-25T15:59:56;2.83;;;2.27;;
22929;SDS011;11630;42.660;23.292;2023-04-25T16:02:27;8.67;;;3.20;;
22929;SDS011;11630;42.660;23.292;2023-04-25T16:04:58;4.27;;;3.43;;
22929;SDS011;11630;42.660;23.292;2023-04-25T16:07:29;4.23;;;2.77;;
22929;SDS011;11630;42.660;23.292;2023-04-25T16:09:59;4.93;;;2.73;;
22929;SDS011;11630;42.660;23.292;2023-04-25T16:12:29;4.10;;;2.60;;
22929;SDS011;11630;42.660;23.292;2023-04-25T16:15:00;3.73;;;2.67;;
22929;SDS011;11630;42.660;23.292;2023-04-25T16:17:31;5.03;;;2.53;;
22929;SDS011;11630;42.660;23.292;2023-04-25T16:20:03;1.93;;;1.73;;
22929;SDS011;11630;42.660;23.292;2023-04-25T16:22:39;1.97;;;1.77;;
22929;SDS011;11630;42.660;23.292;2023-04-25T16:25:10;1.70;;;1.60;;
22929;SDS011;11630;42.660;23.292;2023-04-25T16:27:42;3.50;;;1.83;;
22929;SDS011;11630;42.660;23.292;2023-04-25T16:30:18;3.43;;;1.83;;